createdAt,value
2022-10-12T00:02:05.045Z,9.83
2022-10-12T00:04:31.413Z,9.47
2022-10-12T00:06:57.693Z,9.83
2022-10-12T00:09:23.994Z,9.17
2022-10-12T00:11:50.254Z,9.23
2022-10-12T00:14:16.513Z,9.67
2022-10-12T00:16:42.787Z,9.00
2022-10-12T00:19:11.895Z,9.23
2022-10-12T00:21:38.804Z,8.87
2022-10-12T00:24:05.446Z,9.07
2022-10-12T00:26:33.199Z,9.30
2022-10-12T00:29:01.147Z,9.87
2022-10-12T00:31:28.394Z,8.97
2022-10-12T00:33:54.966Z,9.03
2022-10-12T00:36:23.994Z,9.17
2022-10-12T00:38:51.414Z,8.67
2022-10-12T00:41:18.561Z,9.00
2022-10-12T00:43:45.481Z,9.63
2022-10-12T00:46:16.342Z,8.73
2022-10-12T00:48:44.186Z,8.73
2022-10-12T00:51:11.014Z,8.87
2022-10-12T00:53:39.377Z,8.40
2022-10-12T00:56:08.597Z,8.00
2022-10-12T00:58:34.907Z,8.33
2022-10-12T01:01:02.452Z,8.87
2022-10-12T01:03:30.021Z,8.53
2022-10-12T01:05:56.450Z,8.83
2022-10-12T01:08:22.940Z,10.57
2022-10-12T01:10:49.214Z,9.53
2022-10-12T01:13:15.531Z,8.80
2022-10-12T01:15:49.724Z,8.90
2022-10-12T01:18:19.426Z,9.33
2022-10-12T01:20:53.608Z,9.17
2022-10-12T01:23:22.973Z,10.00
2022-10-12T01:25:49.187Z,8.93
2022-10-12T01:28:22.249Z,8.50
2022-10-12T01:30:52.305Z,8.10
2022-10-12T01:33:40.717Z,8.83
2022-10-12T01:36:09.526Z,8.10
2022-10-12T01:38:38.862Z,8.30
2022-10-12T01:41:11.473Z,8.50
2022-10-12T01:43:39.266Z,8.53
2022-10-12T01:46:20.484Z,8.53
2022-10-12T01:48:48.755Z,8.57
2022-10-12T01:51:29.309Z,8.73
2022-10-12T01:54:10.487Z,8.50
2022-10-12T01:56:39.730Z,8.40
2022-10-12T01:59:25.215Z,9.10
2022-10-12T02:02:07.988Z,8.70
2022-10-12T02:04:37.326Z,8.63
2022-10-12T02:07:12.084Z,7.77
2022-10-12T02:09:39.812Z,8.70
2022-10-12T02:12:26.311Z,8.73
2022-10-12T02:14:54.598Z,8.03
2022-10-12T02:17:22.219Z,8.73
2022-10-12T02:19:55.720Z,8.20
2022-10-12T02:22:23.416Z,8.07
2022-10-12T02:24:52.672Z,8.37
2022-10-12T02:27:20.347Z,8.43
2022-10-12T02:29:47.184Z,8.07
2022-10-12T02:32:21.965Z,7.97
2022-10-12T02:35:24.072Z,8.33
2022-10-12T02:37:55.358Z,8.77
2022-10-12T02:40:24.734Z,7.87
2022-10-12T02:43:15.350Z,7.60
2022-10-12T02:45:43.143Z,8.50
2022-10-12T02:48:11.175Z,8.07
2022-10-12T02:50:37.458Z,8.67
2022-10-12T02:53:04.415Z,7.47
2022-10-12T02:55:31.225Z,7.53
2022-10-12T02:57:57.500Z,8.40
2022-10-12T03:00:23.733Z,8.27
2022-10-12T03:02:50.060Z,8.13
2022-10-12T03:05:16.324Z,7.57
2022-10-12T03:07:42.551Z,7.60
2022-10-12T03:10:09.184Z,7.40
2022-10-12T03:12:35.444Z,8.07
2022-10-12T03:15:01.652Z,8.33
2022-10-12T03:17:27.897Z,7.67
2022-10-12T03:19:55.108Z,7.97
2022-10-12T03:22:26.924Z,7.70
2022-10-12T03:24:53.229Z,7.37
2022-10-12T03:27:19.473Z,8.17
2022-10-12T03:29:45.671Z,8.37
2022-10-12T03:32:11.879Z,7.67
2022-10-12T03:34:38.092Z,8.03
2022-10-12T03:37:04.318Z,8.50
2022-10-12T03:39:30.548Z,8.03
2022-10-12T03:41:56.781Z,8.10
2022-10-12T03:44:23.039Z,7.77
2022-10-12T03:46:49.243Z,7.23
2022-10-12T03:49:15.462Z,7.53
2022-10-12T03:51:41.690Z,7.70
2022-10-12T03:54:08.037Z,8.33
2022-10-12T03:56:34.258Z,7.90
2022-10-12T03:59:00.548Z,8.17
2022-10-12T04:01:26.851Z,7.27
2022-10-12T04:03:53.177Z,7.27
2022-10-12T04:06:19.391Z,7.17
2022-10-12T04:08:50.519Z,7.43
2022-10-12T04:11:17.224Z,7.60
2022-10-12T04:13:43.790Z,7.83
2022-10-12T04:16:10.174Z,7.27
2022-10-12T04:18:36.440Z,7.37
2022-10-12T04:21:03.688Z,7.50
2022-10-12T04:23:30.074Z,7.43
2022-10-12T04:25:56.355Z,7.23
2022-10-12T04:28:22.649Z,7.17
2022-10-12T04:30:48.958Z,7.47
2022-10-12T04:33:15.659Z,7.60
2022-10-12T04:35:42.090Z,6.97
2022-10-12T04:38:08.332Z,6.87
2022-10-12T04:40:34.608Z,6.70
2022-10-12T04:43:00.872Z,6.50
2022-10-12T04:45:27.102Z,7.30
2022-10-12T04:47:53.346Z,7.43
2022-10-12T04:50:19.853Z,7.07
2022-10-12T04:52:46.101Z,7.27
2022-10-12T04:55:12.352Z,7.23
2022-10-12T04:57:38.905Z,6.83
2022-10-12T05:00:06.021Z,6.90
2022-10-12T05:02:33.243Z,7.30
2022-10-12T05:04:59.563Z,6.50
2022-10-12T05:07:25.807Z,6.77
2022-10-12T05:09:52.056Z,6.80
2022-10-12T05:12:18.306Z,6.80
2022-10-12T05:14:44.586Z,7.07
2022-10-12T05:17:10.987Z,7.10
2022-10-12T05:19:37.200Z,7.03
2022-10-12T05:22:03.506Z,6.43
2022-10-12T05:24:29.916Z,6.70
2022-10-12T05:26:56.827Z,7.07
2022-10-12T05:29:23.080Z,6.27
2022-10-12T05:31:49.289Z,6.13
2022-10-12T05:34:15.544Z,6.43
2022-10-12T05:36:41.781Z,6.70
2022-10-12T05:39:08.076Z,7.00
2022-10-12T05:41:34.326Z,6.60
2022-10-12T05:44:00.567Z,6.63
2022-10-12T05:46:26.855Z,6.93
2022-10-12T05:48:53.075Z,6.83
2022-10-12T05:51:19.299Z,6.70
2022-10-12T05:53:45.696Z,7.80
2022-10-12T05:56:11.938Z,7.20
2022-10-12T05:58:38.208Z,6.93
2022-10-12T06:01:05.400Z,7.20
2022-10-12T06:03:34.959Z,6.80
2022-10-12T06:06:01.671Z,6.53
2022-10-12T06:08:29.184Z,6.97
2022-10-12T06:10:55.386Z,6.80
2022-10-12T06:13:21.759Z,6.53
2022-10-12T06:15:48.284Z,6.67
2022-10-12T06:18:15.042Z,6.33
2022-10-12T06:20:41.478Z,6.30
2022-10-12T06:23:07.767Z,6.13
2022-10-12T06:25:34.052Z,6.57
2022-10-12T06:28:00.276Z,6.13
2022-10-12T06:30:26.576Z,6.40
2022-10-12T06:32:52.832Z,6.60
2022-10-12T06:35:19.043Z,5.97
2022-10-12T06:37:50.433Z,6.60
2022-10-12T06:40:17.553Z,5.80
2022-10-12T06:42:44.008Z,6.10
2022-10-12T06:45:10.581Z,6.40
2022-10-12T06:47:36.818Z,6.17
2022-10-12T06:50:03.196Z,6.30
2022-10-12T06:52:29.508Z,6.70
2022-10-12T06:54:55.728Z,7.07
2022-10-12T06:57:21.975Z,6.10
2022-10-12T06:59:48.198Z,6.43
2022-10-12T07:02:14.430Z,5.63
2022-10-12T07:04:40.650Z,6.70
2022-10-12T07:07:06.872Z,6.13
2022-10-12T07:09:33.318Z,6.17
2022-10-12T07:11:59.572Z,5.60
2022-10-12T07:14:25.794Z,5.60
2022-10-12T07:16:55.234Z,5.80
2022-10-12T07:19:21.865Z,5.77
2022-10-12T07:21:48.112Z,5.70
2022-10-12T07:24:14.560Z,5.27
2022-10-12T07:26:40.863Z,6.07
2022-10-12T07:29:07.436Z,5.77
2022-10-12T07:31:33.801Z,5.07
2022-10-12T07:34:00.045Z,5.43
2022-10-12T07:36:41.010Z,5.20
2022-10-12T07:39:12.828Z,5.13
2022-10-12T07:41:39.056Z,5.20
2022-10-12T07:44:05.294Z,5.20
2022-10-12T07:46:31.541Z,4.60
2022-10-12T07:48:57.786Z,5.17
2022-10-12T07:51:23.999Z,4.37
2022-10-12T07:53:50.714Z,4.63
2022-10-12T07:56:17.215Z,4.30
2022-10-12T07:58:47.897Z,4.50
2022-10-12T08:01:14.262Z,4.57
2022-10-12T08:03:40.611Z,4.60
2022-10-12T08:06:10.656Z,5.07
2022-10-12T08:08:36.928Z,4.70
2022-10-12T08:11:04.452Z,5.00
2022-10-12T08:13:30.974Z,4.87
2022-10-12T08:15:57.337Z,5.27
2022-10-12T08:18:23.636Z,5.90
2022-10-12T08:20:49.857Z,5.70
2022-10-12T08:23:16.272Z,4.73
2022-10-12T08:25:44.040Z,4.90
2022-10-12T08:28:10.336Z,4.47
2022-10-12T08:30:38.686Z,4.73
2022-10-12T08:33:10.162Z,4.60
2022-10-12T08:35:40.554Z,4.87
2022-10-12T08:38:07.685Z,4.70
2022-10-12T08:40:36.592Z,5.70
2022-10-12T08:43:27.687Z,4.87
2022-10-12T08:45:55.606Z,4.27
2022-10-12T08:48:23.975Z,4.77
2022-10-12T08:50:53.545Z,4.10
2022-10-12T08:53:26.085Z,4.50
2022-10-12T08:55:52.887Z,3.63
2022-10-12T08:58:20.926Z,4.40
2022-10-12T09:00:58.984Z,4.60
2022-10-12T09:03:33.557Z,4.37
2022-10-12T09:06:07.840Z,3.90
2022-10-12T09:08:45.140Z,3.63
2022-10-12T09:11:25.239Z,3.20
2022-10-12T09:14:10.195Z,3.90
2022-10-12T09:16:42.350Z,4.13
2022-10-12T09:19:13.244Z,3.30
2022-10-12T09:21:40.934Z,2.97
2022-10-12T09:24:13.392Z,3.30
2022-10-12T09:26:40.031Z,2.90
2022-10-12T09:29:24.248Z,2.83
2022-10-12T09:32:10.126Z,2.20
2022-10-12T09:34:36.447Z,2.50
2022-10-12T09:37:03.502Z,2.40
2022-10-12T09:39:32.179Z,2.23
2022-10-12T09:41:58.425Z,2.47
2022-10-12T09:44:35.450Z,2.30
2022-10-12T09:47:03.018Z,2.17
2022-10-12T09:49:42.718Z,2.30
2022-10-12T09:52:09.469Z,2.70
2022-10-12T09:54:39.219Z,2.47
2022-10-12T09:57:06.634Z,3.20
2022-10-12T09:59:44.049Z,2.87
2022-10-12T10:02:10.786Z,2.90
2022-10-12T10:04:37.675Z,3.50
2022-10-12T10:07:19.965Z,2.50
2022-10-12T10:09:46.851Z,2.53
2022-10-12T10:12:17.541Z,2.70
2022-10-12T10:14:44.408Z,2.10
2022-10-12T10:17:18.252Z,2.30
2022-10-12T10:19:51.850Z,2.50
2022-10-12T10:22:18.651Z,2.30
2022-10-12T10:24:49.666Z,2.43
2022-10-12T10:27:37.261Z,2.23
2022-10-12T10:30:29.468Z,2.33
2022-10-12T10:33:09.176Z,1.90
2022-10-12T10:35:35.687Z,2.37
2022-10-12T10:38:03.829Z,2.03
2022-10-12T10:40:31.546Z,2.30
2022-10-12T10:43:03.825Z,1.90
2022-10-12T10:45:35.314Z,2.40
2022-10-12T10:48:09.234Z,2.00
2022-10-12T10:50:37.779Z,2.30
2022-10-12T10:53:06.358Z,1.70
2022-10-12T10:55:44.393Z,2.00
2022-10-12T10:58:20.847Z,2.50
2022-10-12T11:00:48.159Z,2.13
2022-10-12T11:03:17.651Z,1.93
2022-10-12T11:05:45.360Z,2.20
2022-10-12T11:08:21.208Z,2.23
2022-10-12T11:10:50.167Z,1.77
2022-10-12T11:13:24.503Z,1.40
2022-10-12T11:15:52.940Z,1.87
2022-10-12T11:18:24.236Z,2.27
2022-10-12T11:20:53.098Z,2.10
2022-10-12T11:23:24.325Z,2.23
2022-10-12T11:25:55.827Z,2.03
2022-10-12T11:28:22.919Z,2.10
2022-10-12T11:30:51.887Z,2.03
2022-10-12T11:33:22.304Z,1.63
2022-10-12T11:35:48.728Z,2.17
2022-10-12T11:38:15.450Z,1.57
2022-10-12T11:41:05.679Z,1.37
2022-10-12T11:43:36.397Z,1.60
2022-10-12T11:46:05.555Z,2.03
2022-10-12T11:48:35.627Z,1.80
2022-10-12T11:51:04.286Z,1.93
2022-10-12T11:53:36.576Z,1.93
2022-10-12T11:56:05.917Z,2.37
2022-10-12T11:58:59.264Z,2.10
2022-10-12T12:01:40.340Z,1.70
2022-10-12T12:04:43.946Z,1.90
2022-10-12T12:07:16.776Z,1.57
2022-10-12T12:09:47.989Z,1.50
2022-10-12T12:12:18.727Z,1.60
2022-10-12T12:14:51.031Z,1.80
2022-10-12T12:17:17.230Z,1.70
2022-10-12T12:19:44.457Z,1.50
2022-10-12T12:22:15.431Z,1.90
2022-10-12T12:24:51.731Z,1.90
2022-10-12T12:27:36.646Z,1.73
2022-10-12T12:30:26.399Z,1.80
2022-10-12T12:33:04.805Z,2.03
2022-10-12T12:35:50.551Z,2.10
2022-10-12T12:38:24.344Z,1.80
2022-10-12T12:40:58.659Z,2.17
2022-10-12T12:43:30.793Z,1.80
2022-10-12T12:46:08.198Z,1.73
2022-10-12T12:48:43.362Z,1.40
2022-10-12T12:51:14.576Z,1.80
2022-10-12T12:53:45.017Z,1.67
2022-10-12T12:56:18.592Z,1.60
2022-10-12T12:58:58.182Z,1.63
2022-10-12T13:01:35.865Z,1.60
2022-10-12T13:04:11.157Z,1.70
2022-10-12T13:06:49.176Z,1.87
2022-10-12T13:09:38.268Z,1.67
2022-10-12T13:12:13.290Z,1.90
2022-10-12T13:15:00.074Z,1.90
2022-10-12T13:17:33.592Z,1.70
2022-10-12T13:20:02.452Z,1.70
2022-10-12T13:22:31.294Z,1.93
2022-10-12T13:25:02.868Z,1.53
2022-10-12T13:27:43.072Z,1.90
2022-10-12T13:30:21.257Z,1.63
2022-10-12T13:32:56.437Z,1.67
2022-10-12T13:35:29.088Z,1.70
2022-10-12T13:38:02.150Z,1.57
2022-10-12T13:40:29.364Z,1.70
2022-10-12T13:42:55.717Z,1.63
2022-10-12T13:45:21.996Z,1.73
2022-10-12T13:47:48.230Z,1.70
2022-10-12T13:50:18.867Z,2.13
2022-10-12T13:52:52.304Z,1.67
2022-10-12T13:55:18.507Z,1.50
2022-10-12T13:57:50.160Z,2.70
2022-10-12T14:00:16.361Z,1.53
2022-10-12T14:02:56.463Z,1.50
2022-10-12T14:05:24.320Z,1.57
2022-10-12T14:07:52.305Z,2.07
2022-10-12T14:10:20.798Z,1.93
2022-10-12T14:12:49.234Z,1.50
2022-10-12T14:15:15.778Z,1.77
2022-10-12T14:17:45.848Z,1.63
2022-10-12T14:20:17.202Z,1.83
2022-10-12T14:22:46.796Z,1.50
2022-10-12T14:25:20.950Z,1.90
2022-10-12T14:27:52.730Z,1.57
2022-10-12T14:30:20.792Z,1.77
2022-10-12T14:32:47.825Z,1.70
2022-10-12T14:35:22.515Z,1.53
2022-10-12T14:37:49.671Z,1.73
2022-10-12T14:40:35.008Z,1.70
2022-10-12T14:43:07.836Z,1.60
2022-10-12T14:45:34.341Z,1.90
2022-10-12T14:48:01.482Z,1.70
2022-10-12T14:50:29.423Z,1.67
2022-10-12T14:52:57.191Z,1.80
2022-10-12T14:55:25.591Z,2.00
2022-10-12T14:57:52.035Z,1.57
2022-10-12T15:00:19.347Z,1.57
2022-10-12T15:02:45.616Z,2.17
2022-10-12T15:05:12.991Z,2.10
2022-10-12T15:07:39.483Z,1.77
2022-10-12T15:10:05.950Z,1.67
2022-10-12T15:12:35.329Z,1.67
2022-10-12T15:15:07.792Z,2.00
2022-10-12T15:17:34.055Z,2.13
2022-10-12T15:20:00.288Z,1.43
2022-10-12T15:22:26.612Z,2.13
2022-10-12T15:24:53.915Z,2.03
2022-10-12T15:27:20.158Z,1.60
2022-10-12T15:29:47.901Z,2.10
2022-10-12T15:32:15.418Z,1.93
2022-10-12T15:34:42.057Z,2.10
2022-10-12T15:37:09.412Z,2.47
2022-10-12T15:39:35.762Z,2.30
2022-10-12T15:42:02.010Z,2.20
2022-10-12T15:44:28.328Z,2.07
2022-10-12T15:46:54.935Z,2.20
2022-10-12T15:49:24.287Z,2.10
2022-10-12T15:51:52.085Z,2.43
2022-10-12T15:54:23.802Z,2.50
2022-10-12T15:56:51.215Z,2.70
2022-10-12T15:59:17.482Z,2.60
2022-10-12T16:01:47.290Z,2.30
2022-10-12T16:04:14.673Z,2.13
2022-10-12T16:06:40.958Z,2.40
2022-10-12T16:09:07.402Z,2.47
2022-10-12T16:11:33.692Z,2.30
2022-10-12T16:13:59.984Z,2.00
2022-10-12T16:16:26.279Z,2.30
2022-10-12T16:18:53.957Z,2.20
2022-10-12T16:21:20.410Z,2.10
2022-10-12T16:23:46.672Z,2.30
2022-10-12T16:26:14.640Z,2.40
2022-10-12T16:28:41.050Z,2.13
2022-10-12T16:31:12.507Z,2.40
2022-10-12T16:33:39.316Z,2.57
2022-10-12T16:36:15.232Z,2.23
2022-10-12T16:38:41.618Z,2.23
2022-10-12T16:41:08.862Z,2.57
2022-10-12T16:43:36.280Z,3.30
2022-10-12T16:46:02.835Z,3.43
2022-10-12T16:48:29.084Z,3.27
2022-10-12T16:50:56.691Z,3.03
2022-10-12T16:53:22.909Z,3.77
2022-10-12T16:55:49.152Z,3.03
2022-10-12T16:58:15.404Z,3.10
2022-10-12T17:00:43.148Z,3.40
2022-10-12T17:03:10.589Z,4.03
2022-10-12T17:05:36.820Z,4.13
2022-10-12T17:08:03.054Z,3.67
2022-10-12T17:10:29.302Z,3.30
2022-10-12T17:12:55.567Z,3.50
2022-10-12T17:15:24.670Z,3.90
2022-10-12T17:17:50.930Z,3.30
2022-10-12T17:20:18.824Z,3.50
2022-10-12T17:22:45.162Z,3.70
2022-10-12T17:25:11.418Z,4.30
2022-10-12T17:27:37.867Z,3.73
2022-10-12T17:30:04.248Z,4.33
2022-10-12T17:32:30.532Z,4.40
2022-10-12T17:34:56.733Z,4.50
2022-10-12T17:37:25.561Z,4.70
2022-10-12T17:39:52.045Z,5.17
2022-10-12T17:42:20.399Z,4.93
2022-10-12T17:44:46.814Z,4.70
2022-10-12T17:47:13.087Z,4.90
2022-10-12T17:49:42.359Z,4.70
2022-10-12T17:52:08.613Z,5.13
2022-10-12T17:54:34.926Z,5.00
2022-10-12T17:57:01.227Z,5.27
2022-10-12T17:59:27.567Z,5.40
2022-10-12T18:01:54.332Z,5.97
2022-10-12T18:04:20.747Z,5.60
2022-10-12T18:06:47.189Z,5.20
2022-10-12T18:09:13.588Z,6.17
2022-10-12T18:11:40.054Z,5.53
2022-10-12T18:14:08.843Z,6.20
2022-10-12T18:16:35.141Z,62.90
2022-10-12T18:19:02.202Z,224.13
2022-10-12T18:21:30.424Z,338.97
2022-10-12T18:23:56.848Z,483.53
2022-10-12T18:26:24.365Z,371.73
2022-10-12T18:28:51.538Z,114.00
2022-10-12T18:31:19.499Z,64.03
2022-10-12T18:33:46.069Z,56.17
2022-10-12T18:36:12.997Z,46.90
2022-10-12T18:38:39.311Z,22.50
2022-10-12T18:41:06.641Z,16.83
2022-10-12T18:43:32.914Z,13.13
2022-10-12T18:45:59.317Z,11.57
2022-10-12T18:48:25.643Z,9.47
2022-10-12T18:50:52.641Z,8.50
2022-10-12T18:53:19.610Z,8.27
2022-10-12T18:55:45.937Z,7.90
2022-10-12T18:58:12.251Z,8.00
2022-10-12T19:00:39.650Z,8.03
2022-10-12T19:03:06.102Z,9.20
2022-10-12T19:05:32.332Z,7.90
2022-10-12T19:07:58.604Z,8.13
2022-10-12T19:10:24.895Z,7.47
2022-10-12T19:12:51.149Z,7.93
2022-10-12T19:15:17.517Z,7.40
2022-10-12T19:17:43.754Z,7.60
2022-10-12T19:20:10.144Z,7.50
2022-10-12T19:22:36.450Z,8.37
2022-10-12T19:25:02.741Z,6.73
2022-10-12T19:27:30.199Z,6.90
2022-10-12T19:29:56.932Z,7.20
2022-10-12T19:32:23.168Z,7.13
2022-10-12T19:34:50.623Z,7.57
2022-10-12T19:37:16.935Z,7.50
2022-10-12T19:39:45.048Z,7.97
2022-10-12T19:42:11.349Z,6.77
2022-10-12T19:44:37.668Z,7.70
2022-10-12T19:47:04.000Z,6.90
2022-10-12T19:49:34.385Z,7.90
2022-10-12T19:52:02.816Z,7.13
2022-10-12T19:54:35.913Z,6.80
2022-10-12T19:57:02.527Z,6.60
2022-10-12T19:59:28.735Z,7.40
2022-10-12T20:01:54.991Z,7.00
2022-10-12T20:04:21.275Z,7.30
2022-10-12T20:06:47.523Z,6.80
2022-10-12T20:09:13.811Z,6.27
2022-10-12T20:11:40.256Z,6.10
2022-10-12T20:14:06.747Z,5.50
2022-10-12T20:16:35.269Z,5.90
2022-10-12T20:19:01.895Z,6.17
2022-10-12T20:21:28.249Z,5.50
2022-10-12T20:23:54.845Z,5.47
2022-10-12T20:26:22.936Z,6.03
2022-10-12T20:28:50.010Z,6.63
2022-10-12T20:31:18.446Z,6.00
2022-10-12T20:33:45.050Z,6.00
2022-10-12T20:36:13.034Z,7.10
2022-10-12T20:38:39.700Z,6.13
2022-10-12T20:41:07.812Z,5.17
2022-10-12T20:43:34.224Z,5.83
2022-10-12T20:46:04.284Z,5.67
2022-10-12T20:48:31.510Z,5.67
2022-10-12T20:50:58.019Z,6.27
2022-10-12T20:53:24.423Z,6.40
2022-10-12T20:55:50.725Z,6.00
2022-10-12T20:58:16.935Z,6.97
2022-10-12T21:00:43.185Z,5.90
2022-10-12T21:03:09.432Z,5.73
2022-10-12T21:05:35.877Z,5.90
2022-10-12T21:08:02.893Z,5.87
2022-10-12T21:10:29.161Z,5.70
2022-10-12T21:12:55.460Z,5.70
2022-10-12T21:15:21.717Z,6.00
2022-10-12T21:17:47.945Z,5.77
2022-10-12T21:20:14.310Z,6.27
2022-10-12T21:22:40.641Z,6.07
2022-10-12T21:25:07.097Z,5.80
2022-10-12T21:27:33.314Z,5.83
2022-10-12T21:29:59.531Z,5.53
2022-10-12T21:32:25.771Z,5.80
2022-10-12T21:34:53.438Z,5.80
2022-10-12T21:37:19.651Z,5.67
2022-10-12T21:39:49.641Z,6.37
2022-10-12T21:42:19.995Z,5.83
2022-10-12T21:44:46.470Z,6.17
2022-10-12T21:47:17.308Z,5.60
2022-10-12T21:49:44.384Z,5.73
2022-10-12T21:52:10.644Z,6.60
2022-10-12T21:54:36.924Z,5.93
2022-10-12T21:57:03.198Z,5.20
2022-10-12T21:59:29.424Z,5.43
2022-10-12T22:01:55.664Z,5.37
2022-10-12T22:04:21.898Z,5.77
2022-10-12T22:06:48.169Z,5.80
2022-10-12T22:09:16.773Z,6.57
2022-10-12T22:11:43.937Z,5.77
2022-10-12T22:14:12.317Z,5.43
2022-10-12T22:16:38.634Z,5.73
2022-10-12T22:19:06.700Z,5.50
2022-10-12T22:21:33.727Z,5.83
2022-10-12T22:24:00.567Z,5.50
2022-10-12T22:26:26.846Z,5.50
2022-10-12T22:28:53.420Z,5.37
2022-10-12T22:31:22.544Z,5.90
2022-10-12T22:33:49.088Z,5.50
2022-10-12T22:36:15.793Z,5.67
2022-10-12T22:38:42.478Z,6.00
2022-10-12T22:41:16.103Z,6.33
2022-10-12T22:43:42.349Z,6.10
2022-10-12T22:46:08.961Z,5.53
2022-10-12T22:48:35.876Z,5.47
2022-10-12T22:51:02.234Z,6.07
2022-10-12T22:53:28.852Z,6.00
2022-10-12T22:55:59.953Z,5.77
2022-10-12T22:58:26.322Z,5.80
2022-10-12T23:00:52.722Z,6.27
2022-10-12T23:03:19.008Z,6.23
2022-10-12T23:05:49.040Z,6.07
2022-10-12T23:08:15.452Z,6.43
2022-10-12T23:10:41.721Z,6.33
2022-10-12T23:13:07.941Z,6.97
2022-10-12T23:15:34.306Z,6.30
2022-10-12T23:18:00.567Z,6.00
2022-10-12T23:20:26.782Z,6.40
2022-10-12T23:22:53.029Z,6.33
2022-10-12T23:25:19.246Z,6.13
2022-10-12T23:27:45.492Z,5.90
2022-10-12T23:30:11.866Z,6.13
2022-10-12T23:32:38.084Z,6.43
2022-10-12T23:35:04.459Z,6.43
2022-10-12T23:37:30.711Z,6.43
2022-10-12T23:39:56.932Z,6.60
2022-10-12T23:42:23.138Z,6.70
2022-10-12T23:44:49.348Z,6.53
2022-10-12T23:47:15.617Z,6.40
2022-10-12T23:49:41.882Z,5.80
2022-10-12T23:52:08.093Z,5.87
2022-10-12T23:54:34.464Z,6.40
2022-10-12T23:57:00.696Z,6.53
2022-10-12T23:59:26.902Z,6.37
